Auberry, California
Current Conditions -  °F | °C
As of 12:53 PM on Tuesday 27 Jan 2015 (Local Time) from KFAT Reporting Station
Broken Clouds Broken Clouds  
Wind Chill: 59°   Ceiling: 7000
Heat Index: 59°   Visibility: 10mi
Dew Point: 52°   Wind: 0mph
Humidity: 78%   Direction: NA
Pressure: 30.22"   Gusts: NA
Location:  37.08°N, 119.49°W
Report Text: KFAT 272053Z 00000KT 10SM FEW010 FEW040 BKN070 BKN200 15/11 A3022 RMK AO2 SLP233 CU BLDUP OMTNS MTNS OBSC DSNT N-E-SE 60001 T01500111 58006
Loading
Personal Weather Stations






























Interactive Weather Map New forecast layout! Learn more

10-Day Weather Forecast

Advertisements
Track Severe Weather on mobile